N47 weather

Public forecast

Using degrees Fahrenheit for public forecast. Weather courtesy of forecast.io.

Closest aviation weather report (METAR) to Pottstown Municipal Airport

Closest report is Heritage Field, 5.4 nm (10.0 km) ESE. Retrieved 2020/08/11 23:54 UTC (33 minutes ago):

KPTW 112354Z AUTO 18003KT 8SM CLR 28/22 A2994 RMK AO2 SLP134 T02780217 10311 20278 55001

Closest aviation forecast (TAF) to Pottstown Municipal Airport

Closest forecast is Reading Regional Carl A Spaatz Field, 15.2 nm (28.2 km) WNW. Retrieved 2020-08-12 00:27 UTC (12 seconds ago):

TAF KRDG 112325Z 1200/1224 19008KT P6SM FEW040 FM120100 VRB03KT P6SM BKN050 FM120800 VRB02KT 3SM BR FEW004 BKN050 FM121300 VRB03KT P6SM BKN045 FM121800 21006KT P6SM VCTS BKN045CB